sensor_id;sensor_type;location;lat;lon;timestamp;P1;durP1;ratioP1;P2;durP2;ratioP2
15573;SDS011;7888;46.748;8.102;2023-05-20T00:02:01;3.33;;;2.37;;
15573;SDS011;7888;46.748;8.102;2023-05-20T00:04:26;2.97;;;2.67;;
15573;SDS011;7888;46.748;8.102;2023-05-20T00:06:52;3.20;;;2.90;;
15573;SDS011;7888;46.748;8.102;2023-05-20T00:09:18;3.27;;;2.97;;
15573;SDS011;7888;46.748;8.102;2023-05-20T00:11:44;2.97;;;2.67;;
15573;SDS011;7888;46.748;8.102;2023-05-20T00:14:10;3.20;;;2.63;;
15573;SDS011;7888;46.748;8.102;2023-05-20T00:16:36;2.93;;;2.63;;
15573;SDS011;7888;46.748;8.102;2023-05-20T00:19:02;2.60;;;2.40;;
15573;SDS011;7888;46.748;8.102;2023-05-20T00:21:28;3.60;;;2.50;;
15573;SDS011;7888;46.748;8.102;2023-05-20T00:23:54;3.23;;;2.20;;
15573;SDS011;7888;46.748;8.102;2023-05-20T00:26:20;4.10;;;2.20;;
15573;SDS011;7888;46.748;8.102;2023-05-20T00:28:46;2.77;;;2.57;;
15573;SDS011;7888;46.748;8.102;2023-05-20T00:31:12;2.63;;;2.43;;
15573;SDS011;7888;46.748;8.102;2023-05-20T00:33:38;3.10;;;2.50;;
15573;SDS011;7888;46.748;8.102;2023-05-20T00:36:04;1.93;;;1.83;;
15573;SDS011;7888;46.748;8.102;2023-05-20T00:38:30;2.30;;;2.10;;
15573;SDS011;7888;46.748;8.102;2023-05-20T00:40:56;3.60;;;2.23;;
15573;SDS011;7888;46.748;8.102;2023-05-20T00:43:21;2.30;;;2.10;;
15573;SDS011;7888;46.748;8.102;2023-05-20T00:45:49;2.33;;;1.90;;
15573;SDS011;7888;46.748;8.102;2023-05-20T00:48:17;2.03;;;1.87;;
15573;SDS011;7888;46.748;8.102;2023-05-20T00:50:43;2.20;;;2.00;;
15573;SDS011;7888;46.748;8.102;2023-05-20T00:53:09;2.47;;;1.87;;
15573;SDS011;7888;46.748;8.102;2023-05-20T00:55:35;2.50;;;2.03;;
15573;SDS011;7888;46.748;8.102;2023-05-20T00:58:01;2.60;;;2.00;;
15573;SDS011;7888;46.748;8.102;2023-05-20T01:00:27;2.10;;;1.90;;
15573;SDS011;7888;46.748;8.102;2023-05-20T01:02:53;2.13;;;1.93;;
15573;SDS011;7888;46.748;8.102;2023-05-20T01:05:20;3.23;;;1.80;;
15573;SDS011;7888;46.748;8.102;2023-05-20T01:07:46;2.53;;;2.10;;
15573;SDS011;7888;46.748;8.102;2023-05-20T01:10:12;2.10;;;1.90;;
15573;SDS011;7888;46.748;8.102;2023-05-20T01:12:41;2.47;;;2.23;;
15573;SDS011;7888;46.748;8.102;2023-05-20T01:15:16;2.43;;;2.10;;
15573;SDS011;7888;46.748;8.102;2023-05-20T01:17:46;2.40;;;2.20;;
15573;SDS011;7888;46.748;8.102;2023-05-20T01:20:21;3.17;;;2.40;;
15573;SDS011;7888;46.748;8.102;2023-05-20T01:22:52;2.30;;;2.00;;
15573;SDS011;7888;46.748;8.102;2023-05-20T01:25:20;1.90;;;1.70;;
15573;SDS011;7888;46.748;8.102;2023-05-20T01:27:49;2.53;;;2.00;;
15573;SDS011;7888;46.748;8.102;2023-05-20T01:30:16;2.67;;;2.13;;
15573;SDS011;7888;46.748;8.102;2023-05-20T01:32:45;1.93;;;1.77;;
15573;SDS011;7888;46.748;8.102;2023-05-20T01:35:16;2.40;;;2.20;;
15573;SDS011;7888;46.748;8.102;2023-05-20T01:37:43;2.63;;;2.20;;
15573;SDS011;7888;46.748;8.102;2023-05-20T01:40:13;2.20;;;2.00;;
15573;SDS011;7888;46.748;8.102;2023-05-20T01:42:40;2.53;;;2.10;;
15573;SDS011;7888;46.748;8.102;2023-05-20T01:45:09;2.47;;;2.27;;
15573;SDS011;7888;46.748;8.102;2023-05-20T01:47:36;2.30;;;2.10;;
15573;SDS011;7888;46.748;8.102;2023-05-20T01:50:02;2.30;;;1.93;;
15573;SDS011;7888;46.748;8.102;2023-05-20T01:52:28;3.10;;;2.47;;
15573;SDS011;7888;46.748;8.102;2023-05-20T01:54:55;2.63;;;2.43;;
15573;SDS011;7888;46.748;8.102;2023-05-20T01:57:21;3.90;;;2.67;;
15573;SDS011;7888;46.748;8.102;2023-05-20T01:59:48;4.93;;;2.90;;
15573;SDS011;7888;46.748;8.102;2023-05-20T02:02:14;3.33;;;2.37;;
15573;SDS011;7888;46.748;8.102;2023-05-20T02:04:44;4.67;;;2.97;;
15573;SDS011;7888;46.748;8.102;2023-05-20T02:07:12;4.13;;;2.60;;
15573;SDS011;7888;46.748;8.102;2023-05-20T02:09:43;3.50;;;2.40;;
15573;SDS011;7888;46.748;8.102;2023-05-20T02:12:09;3.93;;;2.40;;
15573;SDS011;7888;46.748;8.102;2023-05-20T02:14:40;3.80;;;2.60;;
15573;SDS011;7888;46.748;8.102;2023-05-20T02:17:10;2.77;;;2.17;;
15573;SDS011;7888;46.748;8.102;2023-05-20T02:19:40;3.27;;;2.33;;
15573;SDS011;7888;46.748;8.102;2023-05-20T02:22:07;5.13;;;2.40;;
15573;SDS011;7888;46.748;8.102;2023-05-20T02:24:33;2.87;;;2.10;;
15573;SDS011;7888;46.748;8.102;2023-05-20T02:26:58;2.30;;;2.10;;
15573;SDS011;7888;46.748;8.102;2023-05-20T02:29:25;1.90;;;1.77;;
15573;SDS011;7888;46.748;8.102;2023-05-20T02:31:51;4.03;;;2.20;;
15573;SDS011;7888;46.748;8.102;2023-05-20T02:34:17;4.67;;;2.67;;
15573;SDS011;7888;46.748;8.102;2023-05-20T02:36:43;3.57;;;2.37;;
15573;SDS011;7888;46.748;8.102;2023-05-20T02:39:08;3.00;;;2.50;;
15573;SDS011;7888;46.748;8.102;2023-05-20T02:41:34;2.63;;;2.27;;
15573;SDS011;7888;46.748;8.102;2023-05-20T02:44:00;2.47;;;2.27;;
15573;SDS011;7888;46.748;8.102;2023-05-20T02:46:26;3.03;;;2.70;;
15573;SDS011;7888;46.748;8.102;2023-05-20T02:48:52;3.07;;;2.77;;
15573;SDS011;7888;46.748;8.102;2023-05-20T02:51:17;3.40;;;2.90;;
15573;SDS011;7888;46.748;8.102;2023-05-20T02:53:43;2.90;;;2.13;;
15573;SDS011;7888;46.748;8.102;2023-05-20T02:56:10;3.27;;;2.57;;
15573;SDS011;7888;46.748;8.102;2023-05-20T02:58:37;3.33;;;2.70;;
15573;SDS011;7888;46.748;8.102;2023-05-20T03:01:03;3.40;;;2.93;;
15573;SDS011;7888;46.748;8.102;2023-05-20T03:03:29;3.83;;;3.03;;
15573;SDS011;7888;46.748;8.102;2023-05-20T03:05:55;3.60;;;3.30;;
15573;SDS011;7888;46.748;8.102;2023-05-20T03:08:21;4.47;;;3.33;;
15573;SDS011;7888;46.748;8.102;2023-05-20T03:10:48;3.40;;;2.90;;
15573;SDS011;7888;46.748;8.102;2023-05-20T03:13:14;3.30;;;3.00;;
15573;SDS011;7888;46.748;8.102;2023-05-20T03:15:40;3.80;;;2.80;;
15573;SDS011;7888;46.748;8.102;2023-05-20T03:18:08;3.10;;;2.80;;
15573;SDS011;7888;46.748;8.102;2023-05-20T03:20:34;3.43;;;3.13;;
15573;SDS011;7888;46.748;8.102;2023-05-20T03:23:02;3.67;;;2.90;;
15573;SDS011;7888;46.748;8.102;2023-05-20T03:25:29;4.37;;;2.80;;
15573;SDS011;7888;46.748;8.102;2023-05-20T03:27:55;4.00;;;2.83;;
15573;SDS011;7888;46.748;8.102;2023-05-20T03:30:23;3.20;;;2.83;;
15573;SDS011;7888;46.748;8.102;2023-05-20T03:32:49;3.83;;;3.23;;
15573;SDS011;7888;46.748;8.102;2023-05-20T03:35:15;5.23;;;3.00;;
15573;SDS011;7888;46.748;8.102;2023-05-20T03:37:41;3.33;;;2.87;;
15573;SDS011;7888;46.748;8.102;2023-05-20T03:40:08;3.27;;;2.97;;
15573;SDS011;7888;46.748;8.102;2023-05-20T03:42:34;3.40;;;3.00;;
15573;SDS011;7888;46.748;8.102;2023-05-20T03:45:01;3.00;;;2.70;;
15573;SDS011;7888;46.748;8.102;2023-05-20T03:47:27;3.10;;;2.73;;
15573;SDS011;7888;46.748;8.102;2023-05-20T03:49:53;2.93;;;2.57;;
15573;SDS011;7888;46.748;8.102;2023-05-20T03:52:19;3.23;;;2.93;;
15573;SDS011;7888;46.748;8.102;2023-05-20T03:54:45;3.03;;;2.73;;
15573;SDS011;7888;46.748;8.102;2023-05-20T03:57:11;4.03;;;2.77;;
15573;SDS011;7888;46.748;8.102;2023-05-20T03:59:37;3.23;;;2.90;;
15573;SDS011;7888;46.748;8.102;2023-05-20T04:02:04;3.83;;;3.53;;
15573;SDS011;7888;46.748;8.102;2023-05-20T04:04:30;4.30;;;3.30;;
15573;SDS011;7888;46.748;8.102;2023-05-20T04:06:57;4.53;;;3.83;;
15573;SDS011;7888;46.748;8.102;2023-05-20T04:09:27;4.10;;;3.70;;
15573;SDS011;7888;46.748;8.102;2023-05-20T04:11:53;3.80;;;3.37;;
15573;SDS011;7888;46.748;8.102;2023-05-20T04:14:18;3.70;;;3.03;;
15573;SDS011;7888;46.748;8.102;2023-05-20T04:16:44;5.33;;;4.40;;
15573;SDS011;7888;46.748;8.102;2023-05-20T04:19:10;7.97;;;6.33;;
15573;SDS011;7888;46.748;8.102;2023-05-20T04:21:36;11.87;;;10.67;;
15573;SDS011;7888;46.748;8.102;2023-05-20T04:24:03;18.23;;;16.33;;
15573;SDS011;7888;46.748;8.102;2023-05-20T04:26:29;13.10;;;11.80;;
15573;SDS011;7888;46.748;8.102;2023-05-20T04:28:55;15.13;;;13.40;;
15573;SDS011;7888;46.748;8.102;2023-05-20T04:31:23;15.20;;;13.07;;
15573;SDS011;7888;46.748;8.102;2023-05-20T04:33:51;13.67;;;10.13;;
15573;SDS011;7888;46.748;8.102;2023-05-20T04:36:17;8.90;;;6.53;;
15573;SDS011;7888;46.748;8.102;2023-05-20T04:38:43;4.90;;;4.40;;
15573;SDS011;7888;46.748;8.102;2023-05-20T04:41:09;5.03;;;4.03;;
15573;SDS011;7888;46.748;8.102;2023-05-20T04:43:35;7.53;;;4.33;;
15573;SDS011;7888;46.748;8.102;2023-05-20T04:46:03;5.53;;;4.87;;
15573;SDS011;7888;46.748;8.102;2023-05-20T04:48:33;7.70;;;5.20;;
15573;SDS011;7888;46.748;8.102;2023-05-20T04:50:59;4.90;;;4.13;;
15573;SDS011;7888;46.748;8.102;2023-05-20T04:53:25;5.00;;;4.33;;
15573;SDS011;7888;46.748;8.102;2023-05-20T04:55:54;4.73;;;4.30;;
15573;SDS011;7888;46.748;8.102;2023-05-20T04:58:21;5.67;;;4.90;;
15573;SDS011;7888;46.748;8.102;2023-05-20T05:00:49;5.37;;;3.87;;
15573;SDS011;7888;46.748;8.102;2023-05-20T05:03:16;4.57;;;3.57;;
15573;SDS011;7888;46.748;8.102;2023-05-20T05:05:42;3.70;;;3.40;;
15573;SDS011;7888;46.748;8.102;2023-05-20T05:08:08;4.33;;;3.93;;
15573;SDS011;7888;46.748;8.102;2023-05-20T05:10:37;3.97;;;3.63;;
15573;SDS011;7888;46.748;8.102;2023-05-20T05:13:03;5.23;;;4.37;;
15573;SDS011;7888;46.748;8.102;2023-05-20T05:15:29;4.20;;;3.80;;
15573;SDS011;7888;46.748;8.102;2023-05-20T05:17:55;3.93;;;3.53;;
15573;SDS011;7888;46.748;8.102;2023-05-20T05:20:21;4.10;;;3.73;;
15573;SDS011;7888;46.748;8.102;2023-05-20T05:22:47;3.50;;;3.20;;
15573;SDS011;7888;46.748;8.102;2023-05-20T05:25:14;3.70;;;3.40;;
15573;SDS011;7888;46.748;8.102;2023-05-20T05:27:40;4.87;;;4.07;;
15573;SDS011;7888;46.748;8.102;2023-05-20T05:30:08;4.93;;;4.40;;
15573;SDS011;7888;46.748;8.102;2023-05-20T05:32:35;5.60;;;5.03;;
15573;SDS011;7888;46.748;8.102;2023-05-20T05:35:02;5.77;;;5.03;;
15573;SDS011;7888;46.748;8.102;2023-05-20T05:37:28;4.47;;;4.07;;
15573;SDS011;7888;46.748;8.102;2023-05-20T05:39:54;5.23;;;4.20;;
15573;SDS011;7888;46.748;8.102;2023-05-20T05:42:20;5.80;;;4.60;;
15573;SDS011;7888;46.748;8.102;2023-05-20T05:44:46;5.17;;;4.67;;
15573;SDS011;7888;46.748;8.102;2023-05-20T05:47:12;5.10;;;4.60;;
15573;SDS011;7888;46.748;8.102;2023-05-20T05:49:39;5.60;;;4.67;;
15573;SDS011;7888;46.748;8.102;2023-05-20T05:52:05;5.57;;;4.33;;
15573;SDS011;7888;46.748;8.102;2023-05-20T05:54:31;6.07;;;4.43;;
15573;SDS011;7888;46.748;8.102;2023-05-20T05:56:57;4.97;;;4.50;;
15573;SDS011;7888;46.748;8.102;2023-05-20T05:59:23;6.67;;;4.90;;
15573;SDS011;7888;46.748;8.102;2023-05-20T06:01:48;5.70;;;4.97;;
15573;SDS011;7888;46.748;8.102;2023-05-20T06:04:14;5.03;;;4.53;;
15573;SDS011;7888;46.748;8.102;2023-05-20T06:06:40;4.83;;;4.33;;
15573;SDS011;7888;46.748;8.102;2023-05-20T06:09:06;5.17;;;4.67;;
15573;SDS011;7888;46.748;8.102;2023-05-20T06:11:32;5.00;;;4.57;;
15573;SDS011;7888;46.748;8.102;2023-05-20T06:13:58;5.10;;;4.40;;
15573;SDS011;7888;46.748;8.102;2023-05-20T06:16:25;5.27;;;4.57;;
15573;SDS011;7888;46.748;8.102;2023-05-20T06:18:51;6.20;;;4.97;;
15573;SDS011;7888;46.748;8.102;2023-05-20T06:21:20;5.27;;;4.77;;
15573;SDS011;7888;46.748;8.102;2023-05-20T06:23:47;5.47;;;4.90;;
15573;SDS011;7888;46.748;8.102;2023-05-20T06:26:13;5.10;;;4.60;;
15573;SDS011;7888;46.748;8.102;2023-05-20T06:28:39;5.17;;;4.70;;
15573;SDS011;7888;46.748;8.102;2023-05-20T06:31:05;4.93;;;4.43;;
15573;SDS011;7888;46.748;8.102;2023-05-20T06:33:30;5.10;;;4.60;;
15573;SDS011;7888;46.748;8.102;2023-05-20T06:35:57;7.70;;;5.13;;
15573;SDS011;7888;46.748;8.102;2023-05-20T06:38:23;6.00;;;5.03;;
15573;SDS011;7888;46.748;8.102;2023-05-20T06:40:49;5.77;;;5.27;;
15573;SDS011;7888;46.748;8.102;2023-05-20T06:43:15;6.17;;;5.57;;
15573;SDS011;7888;46.748;8.102;2023-05-20T06:45:41;5.47;;;4.97;;
15573;SDS011;7888;46.748;8.102;2023-05-20T06:48:08;5.50;;;5.00;;
15573;SDS011;7888;46.748;8.102;2023-05-20T06:50:35;4.87;;;4.47;;
15573;SDS011;7888;46.748;8.102;2023-05-20T06:53:01;5.80;;;4.60;;
15573;SDS011;7888;46.748;8.102;2023-05-20T06:55:28;6.00;;;5.40;;
15573;SDS011;7888;46.748;8.102;2023-05-20T06:57:54;5.40;;;4.90;;
15573;SDS011;7888;46.748;8.102;2023-05-20T07:00:20;6.17;;;5.60;;
15573;SDS011;7888;46.748;8.102;2023-05-20T07:02:46;6.47;;;5.87;;
15573;SDS011;7888;46.748;8.102;2023-05-20T07:05:12;6.47;;;5.53;;
15573;SDS011;7888;46.748;8.102;2023-05-20T07:07:38;5.40;;;4.90;;
15573;SDS011;7888;46.748;8.102;2023-05-20T07:10:04;5.47;;;4.97;;
15573;SDS011;7888;46.748;8.102;2023-05-20T07:12:31;5.70;;;5.20;;
15573;SDS011;7888;46.748;8.102;2023-05-20T07:14:57;9.50;;;6.13;;
15573;SDS011;7888;46.748;8.102;2023-05-20T07:17:23;7.03;;;6.07;;
15573;SDS011;7888;46.748;8.102;2023-05-20T07:19:50;6.73;;;6.13;;
15573;SDS011;7888;46.748;8.102;2023-05-20T07:22:16;6.07;;;5.47;;
15573;SDS011;7888;46.748;8.102;2023-05-20T07:24:42;9.97;;;7.73;;
15573;SDS011;7888;46.748;8.102;2023-05-20T07:27:08;7.53;;;6.53;;
15573;SDS011;7888;46.748;8.102;2023-05-20T07:29:34;7.00;;;6.30;;
15573;SDS011;7888;46.748;8.102;2023-05-20T07:32:01;6.33;;;5.73;;
15573;SDS011;7888;46.748;8.102;2023-05-20T07:34:27;6.10;;;5.50;;
15573;SDS011;7888;46.748;8.102;2023-05-20T07:36:53;7.00;;;5.73;;
15573;SDS011;7888;46.748;8.102;2023-05-20T07:39:19;5.27;;;4.77;;
15573;SDS011;7888;46.748;8.102;2023-05-20T07:41:45;6.23;;;5.63;;
15573;SDS011;7888;46.748;8.102;2023-05-20T07:44:11;5.57;;;4.90;;
15573;SDS011;7888;46.748;8.102;2023-05-20T07:46:37;5.33;;;4.60;;
15573;SDS011;7888;46.748;8.102;2023-05-20T07:49:04;5.30;;;4.80;;
15573;SDS011;7888;46.748;8.102;2023-05-20T07:51:30;5.83;;;5.03;;
15573;SDS011;7888;46.748;8.102;2023-05-20T07:53:56;5.57;;;4.83;;
15573;SDS011;7888;46.748;8.102;2023-05-20T07:56:22;5.07;;;4.60;;
15573;SDS011;7888;46.748;8.102;2023-05-20T07:58:55;4.80;;;4.20;;
15573;SDS011;7888;46.748;8.102;2023-05-20T08:01:23;5.47;;;4.53;;
15573;SDS011;7888;46.748;8.102;2023-05-20T08:03:50;4.90;;;4.40;;
15573;SDS011;7888;46.748;8.102;2023-05-20T08:06:16;5.63;;;4.97;;
15573;SDS011;7888;46.748;8.102;2023-05-20T08:08:44;4.87;;;4.33;;
15573;SDS011;7888;46.748;8.102;2023-05-20T08:11:11;5.20;;;4.70;;
15573;SDS011;7888;46.748;8.102;2023-05-20T08:13:37;6.60;;;4.90;;
15573;SDS011;7888;46.748;8.102;2023-05-20T08:16:04;5.17;;;4.67;;
15573;SDS011;7888;46.748;8.102;2023-05-20T08:18:34;5.93;;;5.43;;
15573;SDS011;7888;46.748;8.102;2023-05-20T08:21:03;6.53;;;5.83;;
15573;SDS011;7888;46.748;8.102;2023-05-20T08:23:32;5.20;;;4.70;;
15573;SDS011;7888;46.748;8.102;2023-05-20T08:25:59;5.70;;;5.07;;
15573;SDS011;7888;46.748;8.102;2023-05-20T08:28:26;6.10;;;5.37;;
15573;SDS011;7888;46.748;8.102;2023-05-20T08:30:53;6.20;;;5.60;;
15573;SDS011;7888;46.748;8.102;2023-05-20T08:33:19;6.30;;;5.40;;
15573;SDS011;7888;46.748;8.102;2023-05-20T08:35:46;7.03;;;5.70;;
15573;SDS011;7888;46.748;8.102;2023-05-20T08:38:12;5.70;;;5.10;;
15573;SDS011;7888;46.748;8.102;2023-05-20T08:40:39;6.13;;;5.53;;
15573;SDS011;7888;46.748;8.102;2023-05-20T08:43:05;5.57;;;5.00;;
15573;SDS011;7888;46.748;8.102;2023-05-20T08:45:33;5.93;;;4.97;;
15573;SDS011;7888;46.748;8.102;2023-05-20T08:48:02;5.37;;;4.33;;
15573;SDS011;7888;46.748;8.102;2023-05-20T08:50:29;4.60;;;4.20;;
15573;SDS011;7888;46.748;8.102;2023-05-20T08:52:55;5.37;;;4.87;;
15573;SDS011;7888;46.748;8.102;2023-05-20T08:55:25;5.00;;;4.50;;
15573;SDS011;7888;46.748;8.102;2023-05-20T08:58:02;4.73;;;4.33;;
15573;SDS011;7888;46.748;8.102;2023-05-20T09:00:28;8.40;;;4.57;;
15573;SDS011;7888;46.748;8.102;2023-05-20T09:02:56;4.33;;;3.93;;
15573;SDS011;7888;46.748;8.102;2023-05-20T09:05:24;5.40;;;4.30;;
15573;SDS011;7888;46.748;8.102;2023-05-20T09:07:50;4.77;;;4.37;;
15573;SDS011;7888;46.748;8.102;2023-05-20T09:10:15;4.30;;;3.90;;
15573;SDS011;7888;46.748;8.102;2023-05-20T09:12:41;5.17;;;4.17;;
15573;SDS011;7888;46.748;8.102;2023-05-20T09:15:07;4.40;;;4.00;;
15573;SDS011;7888;46.748;8.102;2023-05-20T09:17:37;4.93;;;4.10;;
15573;SDS011;7888;46.748;8.102;2023-05-20T09:20:09;4.30;;;3.90;;
15573;SDS011;7888;46.748;8.102;2023-05-20T09:22:37;4.87;;;4.03;;
15573;SDS011;7888;46.748;8.102;2023-05-20T09:25:03;5.87;;;4.47;;
15573;SDS011;7888;46.748;8.102;2023-05-20T09:27:30;4.23;;;3.83;;
15573;SDS011;7888;46.748;8.102;2023-05-20T09:29:56;3.97;;;3.53;;
15573;SDS011;7888;46.748;8.102;2023-05-20T09:32:22;4.13;;;3.73;;
15573;SDS011;7888;46.748;8.102;2023-05-20T09:34:50;4.07;;;3.70;;
15573;SDS011;7888;46.748;8.102;2023-05-20T09:37:16;4.83;;;4.37;;
15573;SDS011;7888;46.748;8.102;2023-05-20T09:39:56;4.97;;;4.47;;
15573;SDS011;7888;46.748;8.102;2023-05-20T09:42:36;5.07;;;4.13;;
15573;SDS011;7888;46.748;8.102;2023-05-20T09:45:31;4.30;;;3.90;;
15573;SDS011;7888;46.748;8.102;2023-05-20T09:47:57;4.67;;;3.57;;
15573;SDS011;7888;46.748;8.102;2023-05-20T09:50:26;3.87;;;3.43;;
15573;SDS011;7888;46.748;8.102;2023-05-20T09:52:54;4.10;;;3.70;;
15573;SDS011;7888;46.748;8.102;2023-05-20T09:55:23;3.90;;;3.50;;
15573;SDS011;7888;46.748;8.102;2023-05-20T09:57:49;5.20;;;4.00;;
15573;SDS011;7888;46.748;8.102;2023-05-20T10:00:16;4.50;;;4.10;;
15573;SDS011;7888;46.748;8.102;2023-05-20T10:02:46;4.27;;;3.87;;
15573;SDS011;7888;46.748;8.102;2023-05-20T10:05:18;3.87;;;3.57;;
15573;SDS011;7888;46.748;8.102;2023-05-20T10:14:16;3.50;;;3.20;;
15573;SDS011;7888;46.748;8.102;2023-05-20T10:20:44;3.67;;;3.37;;
15573;SDS011;7888;46.748;8.102;2023-05-20T10:23:26;3.87;;;3.57;;
15573;SDS011;7888;46.748;8.102;2023-05-20T10:25:54;4.53;;;3.67;;
15573;SDS011;7888;46.748;8.102;2023-05-20T10:28:33;4.67;;;4.27;;
15573;SDS011;7888;46.748;8.102;2023-05-20T10:31:01;4.83;;;3.83;;
15573;SDS011;7888;46.748;8.102;2023-05-20T10:33:42;5.00;;;4.53;;
15573;SDS011;7888;46.748;8.102;2023-05-20T10:36:20;4.80;;;3.83;;
15573;SDS011;7888;46.748;8.102;2023-05-20T10:38:54;4.30;;;3.77;;
15573;SDS011;7888;46.748;8.102;2023-05-20T10:41:25;4.73;;;3.67;;
15573;SDS011;7888;46.748;8.102;2023-05-20T10:44:03;4.70;;;4.07;;
15573;SDS011;7888;46.748;8.102;2023-05-20T10:46:31;4.00;;;3.60;;
15573;SDS011;7888;46.748;8.102;2023-05-20T10:48:58;3.97;;;3.57;;
15573;SDS011;7888;46.748;8.102;2023-05-20T10:51:27;4.17;;;3.77;;
15573;SDS011;7888;46.748;8.102;2023-05-20T10:53:55;3.80;;;3.50;;
15573;SDS011;7888;46.748;8.102;2023-05-20T10:56:23;3.97;;;3.50;;
15573;SDS011;7888;46.748;8.102;2023-05-20T10:58:51;4.03;;;3.70;;
15573;SDS011;7888;46.748;8.102;2023-05-20T11:01:22;4.50;;;4.10;;
15573;SDS011;7888;46.748;8.102;2023-05-20T11:03:50;3.70;;;3.40;;
15573;SDS011;7888;46.748;8.102;2023-05-20T11:06:23;3.77;;;3.37;;
15573;SDS011;7888;46.748;8.102;2023-05-20T11:08:52;4.00;;;3.70;;
15573;SDS011;7888;46.748;8.102;2023-05-20T11:11:18;5.40;;;3.77;;
15573;SDS011;7888;46.748;8.102;2023-05-20T11:13:49;3.40;;;3.10;;
15573;SDS011;7888;46.748;8.102;2023-05-20T11:16:17;3.93;;;3.63;;
15573;SDS011;7888;46.748;8.102;2023-05-20T11:18:47;3.63;;;3.37;;
15573;SDS011;7888;46.748;8.102;2023-05-20T11:21:14;4.33;;;3.20;;
15573;SDS011;7888;46.748;8.102;2023-05-20T11:23:40;5.67;;;4.00;;
15573;SDS011;7888;46.748;8.102;2023-05-20T11:26:06;5.13;;;3.70;;
15573;SDS011;7888;46.748;8.102;2023-05-20T11:28:34;4.40;;;4.00;;
15573;SDS011;7888;46.748;8.102;2023-05-20T11:31:00;3.67;;;3.33;;
15573;SDS011;7888;46.748;8.102;2023-05-20T11:33:26;3.87;;;3.57;;
15573;SDS011;7888;46.748;8.102;2023-05-20T11:35:52;4.03;;;3.63;;
15573;SDS011;7888;46.748;8.102;2023-05-20T11:38:19;4.50;;;3.77;;
15573;SDS011;7888;46.748;8.102;2023-05-20T11:40:46;4.10;;;3.23;;
15573;SDS011;7888;46.748;8.102;2023-05-20T11:43:17;4.20;;;3.80;;
15573;SDS011;7888;46.748;8.102;2023-05-20T11:45:44;4.13;;;3.80;;
15573;SDS011;7888;46.748;8.102;2023-05-20T11:48:17;5.23;;;4.30;;
15573;SDS011;7888;46.748;8.102;2023-05-20T11:50:44;3.73;;;3.40;;
15573;SDS011;7888;46.748;8.102;2023-05-20T11:53:15;4.67;;;4.07;;
15573;SDS011;7888;46.748;8.102;2023-05-20T11:55:44;4.53;;;4.13;;
15573;SDS011;7888;46.748;8.102;2023-05-20T11:58:18;4.10;;;3.67;;
15573;SDS011;7888;46.748;8.102;2023-05-20T12:00:54;3.10;;;2.90;;
15573;SDS011;7888;46.748;8.102;2023-05-20T12:03:20;3.93;;;3.60;;
15573;SDS011;7888;46.748;8.102;2023-05-20T12:05:46;4.13;;;3.60;;
15573;SDS011;7888;46.748;8.102;2023-05-20T12:08:13;4.20;;;3.80;;
15573;SDS011;7888;46.748;8.102;2023-05-20T12:10:39;4.40;;;3.87;;
15573;SDS011;7888;46.748;8.102;2023-05-20T12:13:05;5.27;;;3.70;;
15573;SDS011;7888;46.748;8.102;2023-05-20T12:15:35;4.13;;;3.83;;
15573;SDS011;7888;46.748;8.102;2023-05-20T12:18:01;3.77;;;3.47;;
15573;SDS011;7888;46.748;8.102;2023-05-20T12:20:27;3.67;;;3.37;;
15573;SDS011;7888;46.748;8.102;2023-05-20T12:22:55;4.33;;;3.87;;
15573;SDS011;7888;46.748;8.102;2023-05-20T12:25:21;3.87;;;3.57;;
15573;SDS011;7888;46.748;8.102;2023-05-20T12:27:48;4.83;;;3.80;;
15573;SDS011;7888;46.748;8.102;2023-05-20T12:30:15;4.10;;;3.43;;
15573;SDS011;7888;46.748;8.102;2023-05-20T12:32:44;3.93;;;3.63;;
15573;SDS011;7888;46.748;8.102;2023-05-20T12:35:11;3.50;;;3.20;;
15573;SDS011;7888;46.748;8.102;2023-05-20T12:37:37;3.27;;;3.03;;
15573;SDS011;7888;46.748;8.102;2023-05-20T12:40:08;4.10;;;3.70;;
15573;SDS011;7888;46.748;8.102;2023-05-20T12:42:37;7.03;;;3.50;;
15573;SDS011;7888;46.748;8.102;2023-05-20T12:45:04;4.60;;;3.50;;
15573;SDS011;7888;46.748;8.102;2023-05-20T12:47:31;3.90;;;3.60;;
15573;SDS011;7888;46.748;8.102;2023-05-20T12:49:58;3.60;;;3.30;;
15573;SDS011;7888;46.748;8.102;2023-05-20T12:52:24;5.77;;;3.20;;
15573;SDS011;7888;46.748;8.102;2023-05-20T12:54:52;4.33;;;3.83;;
15573;SDS011;7888;46.748;8.102;2023-05-20T12:57:20;4.23;;;3.83;;
15573;SDS011;7888;46.748;8.102;2023-05-20T12:59:47;4.50;;;3.60;;
15573;SDS011;7888;46.748;8.102;2023-05-20T13:02:13;4.30;;;3.80;;
15573;SDS011;7888;46.748;8.102;2023-05-20T13:04:39;4.10;;;3.33;;
15573;SDS011;7888;46.748;8.102;2023-05-20T13:07:05;3.57;;;3.27;;
15573;SDS011;7888;46.748;8.102;2023-05-20T13:09:30;4.07;;;3.70;;
15573;SDS011;7888;46.748;8.102;2023-05-20T13:11:57;5.30;;;3.83;;
15573;SDS011;7888;46.748;8.102;2023-05-20T13:14:23;3.63;;;3.33;;
15573;SDS011;7888;46.748;8.102;2023-05-20T13:16:49;3.17;;;2.87;;
15573;SDS011;7888;46.748;8.102;2023-05-20T13:19:22;3.70;;;3.40;;
15573;SDS011;7888;46.748;8.102;2023-05-20T13:21:49;3.03;;;2.83;;
15573;SDS011;7888;46.748;8.102;2023-05-20T13:24:18;4.17;;;3.13;;
15573;SDS011;7888;46.748;8.102;2023-05-20T13:26:44;3.93;;;2.73;;
15573;SDS011;7888;46.748;8.102;2023-05-20T13:29:10;3.83;;;3.30;;
15573;SDS011;7888;46.748;8.102;2023-05-20T13:31:37;3.57;;;3.27;;
15573;SDS011;7888;46.748;8.102;2023-05-20T13:34:03;3.50;;;3.20;;
15573;SDS011;7888;46.748;8.102;2023-05-20T13:36:29;3.87;;;3.20;;
15573;SDS011;7888;46.748;8.102;2023-05-20T13:38:56;4.10;;;3.37;;
15573;SDS011;7888;46.748;8.102;2023-05-20T13:41:22;3.70;;;3.40;;
15573;SDS011;7888;46.748;8.102;2023-05-20T13:43:51;4.33;;;3.43;;
15573;SDS011;7888;46.748;8.102;2023-05-20T13:46:17;5.13;;;3.70;;
15573;SDS011;7888;46.748;8.102;2023-05-20T13:48:43;4.23;;;3.50;;
15573;SDS011;7888;46.748;8.102;2023-05-20T13:51:09;3.10;;;2.70;;
15573;SDS011;7888;46.748;8.102;2023-05-20T13:53:35;4.40;;;3.70;;
15573;SDS011;7888;46.748;8.102;2023-05-20T13:56:00;4.30;;;3.90;;
15573;SDS011;7888;46.748;8.102;2023-05-20T13:58:27;3.87;;;3.47;;
15573;SDS011;7888;46.748;8.102;2023-05-20T14:00:52;3.73;;;3.40;;
15573;SDS011;7888;46.748;8.102;2023-05-20T14:03:18;3.60;;;3.30;;
15573;SDS011;7888;46.748;8.102;2023-05-20T14:05:44;3.93;;;3.30;;
15573;SDS011;7888;46.748;8.102;2023-05-20T14:08:10;4.20;;;3.70;;
15573;SDS011;7888;46.748;8.102;2023-05-20T14:10:36;3.73;;;3.43;;
15573;SDS011;7888;46.748;8.102;2023-05-20T14:13:02;4.97;;;3.50;;
15573;SDS011;7888;46.748;8.102;2023-05-20T14:15:28;3.77;;;3.33;;
15573;SDS011;7888;46.748;8.102;2023-05-20T14:17:57;3.93;;;3.50;;
15573;SDS011;7888;46.748;8.102;2023-05-20T14:20:23;4.30;;;3.90;;
15573;SDS011;7888;46.748;8.102;2023-05-20T14:22:50;4.17;;;3.40;;
15573;SDS011;7888;46.748;8.102;2023-05-20T14:25:17;4.00;;;3.60;;
15573;SDS011;7888;46.748;8.102;2023-05-20T14:27:43;3.73;;;3.30;;
15573;SDS011;7888;46.748;8.102;2023-05-20T14:30:09;4.17;;;3.77;;
15573;SDS011;7888;46.748;8.102;2023-05-20T14:32:35;3.40;;;3.10;;
15573;SDS011;7888;46.748;8.102;2023-05-20T14:35:01;3.60;;;3.30;;
15573;SDS011;7888;46.748;8.102;2023-05-20T14:37:28;3.90;;;3.60;;
15573;SDS011;7888;46.748;8.102;2023-05-20T14:39:54;4.23;;;3.60;;
15573;SDS011;7888;46.748;8.102;2023-05-20T14:42:20;4.40;;;3.80;;
15573;SDS011;7888;46.748;8.102;2023-05-20T14:44:46;3.47;;;3.17;;
15573;SDS011;7888;46.748;8.102;2023-05-20T14:47:12;4.53;;;3.30;;
15573;SDS011;7888;46.748;8.102;2023-05-20T14:49:43;4.90;;;3.63;;
15573;SDS011;7888;46.748;8.102;2023-05-20T14:52:10;3.70;;;3.37;;
15573;SDS011;7888;46.748;8.102;2023-05-20T14:54:36;3.83;;;3.53;;
15573;SDS011;7888;46.748;8.102;2023-05-20T14:57:02;3.50;;;3.17;;
15573;SDS011;7888;46.748;8.102;2023-05-20T14:59:30;3.80;;;3.50;;
15573;SDS011;7888;46.748;8.102;2023-05-20T15:01:57;3.70;;;3.40;;
15573;SDS011;7888;46.748;8.102;2023-05-20T15:04:23;3.97;;;3.57;;
15573;SDS011;7888;46.748;8.102;2023-05-20T15:06:48;3.97;;;3.40;;
15573;SDS011;7888;46.748;8.102;2023-05-20T15:09:15;3.93;;;3.43;;
15573;SDS011;7888;46.748;8.102;2023-05-20T15:11:41;3.60;;;3.30;;